Sigel, PA

4:18 AM EDT on July 10, 2014 (GMT -0400)
Du Bois-Jefferson County (KDUJ) Elev 1818 ft | 41.18 °N, 78.90 °W | Change Station

Current weather conditions updated 22 minutes ago

Overcast
Overcast
62 °F
Feels Like 62 °F
N
4
Wind Variable Wind from North

Today is forecast to be Cooler than yesterday.

Today
High -- | Low -- °F
--% Chance of Precip.
Yesterday
High -- | Low -- °F
Precip. -- in
5:51 AM 8:50 PM
Waxing Gibbous, 93% visible
Pressure 30.03 in
Visibility 7.0 miles
Clouds Few 6000 ft
Overcast 10000 ft
Dew Point 59 °F
Humidity 90%
Rainfall 0.00 in
Snow Depth Not available.
UV 0 out of 12
Pollen 1.90 out of 12
Air Quality Not available.
Flu Activity Sporadic
METAR KDUJ 100756Z AUTO 01003KT 7SM FEW060 OVC100 17/15 A3007 RMK AO2 SLP169 T01670150

More Conditions Fewer Conditions

Pressure 30.03 in
Visibility 7.0 miles
Clouds Few 6000 ft
Overcast 10000 ft
Dew Point 59 °F
Humidity 90%
Rainfall 0.00 in
Snow Depth Not available.
UV 0 out of 12
Pollen 1.90 out of 12
Air Quality Not available.
Flu Activity Sporadic
METAR KDUJ 100756Z AUTO 01003KT 7SM FEW060 OVC100 17/15 A3007 RMK AO2 SLP169 T01670150

More Conditions Fewer Conditions

10-Day Weather Forecast

Almanac

Astronomy

Jul. 10, 2014 Rise Set
Actual Time 5:51 AM EDT 8:50 PM EDT
Civil Twilight 5:18 AM EDT 9:23 PM EDT
Nautical Twilight 4:36 AM EDT 10:05 PM EDT
Astronomical Twilight 3:47 AM EDT 10:54 PM EDT
Moon 7:00 PM EDT 4:02 AM EDT
Length of Visible Light 16h 04m
Length of Day
14h 58m
Tomorrow will be 1m 11s shorter.
Waxing Gibbous, 93% of the Moon is Illuminated
Today
Waxing Gibbous
Jul 12
Full
Jul 18
Last Quarter
Jul 26
New
Aug 3
First Quarter

Today's Extremes

State Highs State Lows

Community

WunderPhotos

Upload Photos

1,732,083 photos uploaded!

Nearby

Snow Depth

Station Depth Elevation
No new snow has been reported.

Earthquake Activity

City Distance Mag. Time & Date
No recent earthquake activity has been reported nearby.
Minimum magnitude displayed is 2.5.

Coastal Water Temperatures

Place Temperature
No Stations Reporting

Nearby Weather Stations

Station Location Temp. Dew Point Humidity Wind Precip. Elev Updated Type
RAWS ALLEGHENY PA, Marienville, PA 54 °F 54 °F 100% East  at  1 mph 0.00 in / hr 1766 ft 3:07 AM EDT MADIS
Penn Oaks Campground, Leeper, PA 55.0 °F 54 °F 96% WNW  at  0.0 mph 0.00 in / hr 1621 ft 4:18 AM EDT Rapid Fire
Holly Terrace, Falls Creek, PA 60.1 °F 60 °F 98% NNE  at  0.0 mph 0.00 in / hr 1473 ft 4:17 AM EDT Rapid Fire
Valley Overview, Brookville, PA 59.7 °F 59 °F 96% East  at  2.3 mph 0.00 in / hr 1608 ft 4:17 AM EDT Rapid Fire
Heathville Road, Summerville, PA 61.3 °F 61 °F 99% NE  at  0.0 mph 0.00 in / hr 1217 ft 4:17 AM EDT Rapid Fire
Emerald Estates, Saint Marys, PA 56.1 °F 56 °F 98% North  at  0.0 mph 0.00 in / hr 1870 ft 4:17 AM EDT Rapid Fire
Clarion Oaks Golf Course, Clarion, PA 58.6 °F 58 °F 97% NNE  at  1.0 mph 0.00 in / hr 1503 ft 4:15 AM EDT Normal

Show More Stations Show Fewer Stations